.
WxDataArchive / Data Records for 2007-08-09
2007-08-08 August 2007 2007-08-10

Data Records for Thursday, 09 August 2007

Time	Temp	Chill	HIndex	Humid	Dewpt	 Wind 	HiWind	WindDir	Rain 	Barom 
-----	----	-----	------	-----	-----	------	------	-------	-----	----- 
00:00	79.4	79.4	83.3	83	73.8	0	0	---	0.00	29.777 
00:05	79.4	79.4	83.3	83	73.8	0	0	---	0.00	29.776 
00:10	79.4	79.4	83.3	83	73.8	0	0	---	0.00	29.777 
00:15	79.2	79.2	82.9	84	73.9	0	0	---	0.00	29.777 
00:20	79.2	79.2	82.9	84	73.9	0	0	---	0.00	29.779 
00:25	79.2	79.2	83.0	85	74.3	0	0	---	0.00	29.778 
00:30	79.0	79.0	82.5	84	73.7	0	0	---	0.00	29.778 
00:35	79.0	79.0	82.5	84	73.7	0	0	---	0.00	29.778 
00:40	79.0	79.0	82.5	84	73.7	0	0	---	0.00	29.778 
00:45	79.0	79.0	82.5	84	73.7	0	0	---	0.00	29.777 
00:50	79.0	79.0	82.5	84	73.7	0	0	---	0.00	29.777 
00:55	78.8	78.8	82.1	84	73.5	0	0	---	0.00	29.777 
01:00	78.8	78.8	82.1	84	73.5	0	0	---	0.00	29.777 
01:05	78.6	78.6	81.6	84	73.3	0	0	---	0.00	29.775 
01:10	78.6	78.6	81.7	85	73.7	0	0	---	0.00	29.774 
01:15	78.5	78.5	81.5	85	73.6	0	0	---	0.00	29.775 
01:20	78.3	78.3	81.1	86	73.8	0	0	---	0.00	29.770 
01:25	78.1	78.1	80.6	86	73.6	0	0	---	0.00	29.769 
01:30	77.9	77.9	80.2	87	73.7	0	0	---	0.00	29.765 
01:35	77.7	77.7	79.8	87	73.5	0	0	---	0.00	29.763 
01:40	77.7	77.7	79.8	87	73.5	0	0	---	0.00	29.761 
01:45	77.6	77.6	79.6	88	73.8	0	0	---	0.00	29.761 
01:50	77.4	77.4	79.1	88	73.6	0	0	---	0.00	29.762 
01:55	77.4	77.4	79.1	88	73.6	0	0	---	0.00	29.763 
02:00	77.2	77.2	78.7	89	73.7	0	0	---	0.00	29.762 
02:05	77.0	77.0	78.2	89	73.5	0	0	---	0.00	29.761 
02:10	77.0	77.0	78.2	89	73.5	0	0	---	0.00	29.758 
02:15	76.8	76.8	77.8	89	73.3	0	0	---	0.00	29.759 
02:20	76.7	76.7	77.6	89	73.2	0	1	315	0.00	29.755 
02:25	76.7	76.7	77.5	90	73.5	0	0	---	0.00	29.751 
02:30	76.5	76.5	77.1	90	73.3	0	0	---	0.00	29.751 
02:35	76.7	76.7	77.5	90	73.5	0	0	---	0.00	29.751 
02:40	76.7	76.7	77.5	90	73.5	0	0	---	0.00	29.750 
02:45	76.7	76.7	77.5	90	73.5	0	1	315	0.00	29.749 
02:50	76.8	76.8	77.8	89	73.3	0	1	315	0.00	29.749 
02:55	77.0	77.0	78.2	89	73.5	0	1	315	0.00	29.751 
03:00	77.0	77.0	78.3	88	73.2	0	2	0	0.00	29.750 
03:05	77.2	77.2	78.7	87	73.0	0	1	0	0.00	29.751 
03:10	77.2	77.2	78.7	87	73.0	0	1	0	0.00	29.750 
03:15	77.2	77.2	78.7	87	73.0	0	2	0	0.00	29.749 
03:20	77.2	77.2	78.8	86	72.7	0	2	0	0.00	29.748 
03:25	77.2	77.2	78.8	86	72.7	0	2	0	0.00	29.748 
03:30	77.0	77.0	78.3	87	72.8	0	1	0	0.00	29.749 
03:35	77.0	77.0	78.3	87	72.8	0	2	0	0.00	29.749 
03:40	76.8	76.8	77.9	87	72.6	0	2	0	0.00	29.749 
03:45	76.8	76.8	77.9	88	73.0	0	3	45	0.00	29.749 
03:50	76.7	76.7	77.7	88	72.9	0	1	45	0.00	29.754 
03:55	76.5	76.5	77.2	88	72.7	0	0	---	0.00	29.756 
04:00	76.5	76.5	77.2	88	72.7	0	1	45	0.00	29.760 
04:05	76.3	76.3	76.8	89	72.8	0	0	---	0.00	29.758 
04:10	76.1	76.1	76.4	89	72.6	0	0	---	0.00	29.765 
04:15	76.0	76.0	76.2	89	72.5	0	0	---	0.00	29.764 
04:20	76.0	76.0	76.0	90	72.8	0	0	---	0.00	29.764 
04:25	76.0	76.0	76.0	90	72.8	0	0	---	0.00	29.763 
04:30	75.8	75.8	75.6	90	72.6	0	1	45	0.00	29.756 
04:35	75.8	75.8	75.6	90	72.6	0	1	45	0.00	29.751 
04:40	75.8	75.8	75.6	90	72.6	1	1	45	0.00	29.748 
04:45	75.8	75.8	75.6	90	72.6	0	1	45	0.00	29.743 
04:50	75.8	75.8	75.6	90	72.6	0	2	45	0.00	29.744 
04:55	75.6	75.6	75.2	90	72.4	0	1	45	0.00	29.742 
05:00	75.6	75.6	75.2	90	72.4	0	0	---	0.00	29.747 
05:05	75.4	75.4	74.7	91	72.6	0	1	45	0.00	29.750 
05:10	75.4	75.4	74.7	91	72.6	0	1	45	0.00	29.752 
05:15	75.3	75.3	74.5	91	72.5	0	0	---	0.00	29.752 
05:20	75.1	75.1	73.9	92	72.6	0	1	45	0.00	29.746 
05:25	75.1	75.1	73.9	92	72.6	0	1	45	0.00	29.748 
05:30	75.1	75.1	73.9	92	72.6	0	2	45	0.00	29.746 
05:35	75.1	75.1	73.9	92	72.6	0	0	---	0.00	29.750 
05:40	75.1	75.1	73.9	92	72.6	0	2	45	0.00	29.747 
05:45	75.1	75.1	73.8	93	72.9	0	2	45	0.00	29.737 
05:50	75.1	75.1	73.8	93	72.9	0	1	45	0.00	29.738 
05:55	75.1	75.1	73.8	93	72.9	0	0	---	0.00	29.747 
06:00	75.4	75.4	74.4	93	73.2	2	5	248	0.00	29.783 
06:05	75.6	75.6	74.7	94	73.7	3	9	270	0.11	29.797 
06:10	75.8	75.8	75.0	95	74.3	3	8	270	0.08	29.796 
06:15	74.9	74.9	74.9	94	73.0	2	6	68	0.12	29.770 
06:20	74.0	74.0	74.0	93	71.8	0	2	68	0.02	29.774 
06:25	73.5	73.5	73.5	93	71.3	0	2	68	0.02	29.761 
06:30	73.3	73.3	73.3	94	71.5	0	0	---	0.00	29.756 
06:35	73.2	73.2	73.2	94	71.4	0	1	68	0.00	29.758 
06:40	73.2	73.2	73.2	94	71.4	0	1	68	0.00	29.763 
06:45	73.0	73.0	73.0	95	71.5	0	0	---	0.00	29.760 
06:50	73.0	73.0	73.0	95	71.5	0	0	---	0.00	29.758 
06:55	73.0	73.0	73.0	95	71.5	0	0	---	0.00	29.759 
07:00	73.2	73.2	73.2	95	71.7	0	0	---	0.00	29.764 
07:05	73.3	73.3	73.3	96	72.1	0	2	68	0.00	29.766 
07:10	73.3	73.3	73.3	96	72.1	2	3	68	0.00	29.771 
07:15	73.3	73.3	73.3	96	72.1	1	3	90	0.00	29.785 
07:20	73.5	73.5	73.5	96	72.3	1	3	45	0.00	29.804 
07:25	72.8	72.8	72.8	95	71.3	2	6	90	0.00	29.781 
07:30	72.5	72.5	72.5	95	71.0	0	1	90	0.00	29.788 
07:35	72.1	72.1	72.1	95	70.6	0	1	90	0.00	29.793 
07:40	72.1	72.1	72.1	95	70.6	0	2	90	0.00	29.791 
07:45	72.1	72.1	72.1	95	70.6	1	3	90	0.00	29.785 
07:50	72.3	72.3	72.3	95	70.8	1	3	90	0.00	29.780 
07:55	72.3	72.3	72.3	94	70.5	1	3	90	0.00	29.773 
08:00	72.3	72.3	72.3	94	70.5	1	2	90	0.00	29.774 
08:05	72.3	72.3	72.3	94	70.5	0	2	90	0.00	29.774 
08:10	72.3	72.3	72.3	94	70.5	1	3	90	0.00	29.769 
08:15	72.3	72.3	72.3	94	70.5	0	2	90	0.00	29.773 
08:20	72.3	72.3	72.3	94	70.5	1	2	90	0.00	29.769 
08:25	72.3	72.3	72.3	94	70.5	1	3	90	0.00	29.765 
08:30	72.5	72.5	72.5	94	70.7	0	2	90	0.00	29.761 
08:35	72.7	72.7	72.7	94	70.9	0	2	90	0.00	29.761 
08:40	72.7	72.7	72.7	94	70.9	1	3	90	0.00	29.760 
08:45	72.8	72.8	72.8	94	71.0	1	2	90	0.00	29.760 
08:50	73.0	73.0	73.0	94	71.2	0	2	90	0.00	29.759 
08:55	73.2	73.2	73.2	94	71.4	1	4	90	0.00	29.759 
09:00	73.2	73.2	73.2	94	71.4	1	3	90	0.00	29.759 
09:05	73.5	73.5	73.5	93	71.3	1	2	90	0.00	29.760 
09:10	73.9	73.9	73.9	93	71.7	0	1	90	0.00	29.760 
09:15	74.0	74.0	74.0	93	71.8	0	1	90	0.00	29.760 
09:20	74.4	74.4	74.4	91	71.6	0	2	90	0.00	29.764 
09:25	74.9	74.9	74.9	90	71.8	1	3	90	0.00	29.764 
09:30	75.4	75.4	75.0	89	71.9	1	3	90	0.00	29.761 
09:35	76.0	76.0	76.3	88	72.2	1	2	90	0.00	29.757 
09:40	76.7	76.7	77.7	87	72.5	1	3	90	0.00	29.756 
09:45	77.2	77.2	78.8	85	72.3	1	2	90	0.00	29.755 
09:50	77.6	77.6	79.6	84	72.4	1	5	90	0.00	29.752 
09:55	77.9	77.9	80.2	84	72.7	2	4	90	0.00	29.752 
10:00	78.1	78.1	80.6	84	72.9	2	4	90	0.00	29.751 
10:05	78.1	78.1	80.6	83	72.5	2	4	112	0.00	29.754 
10:10	78.3	78.3	80.9	82	72.3	1	4	135	0.00	29.756 
10:15	78.8	78.8	81.9	81	72.5	2	6	112	0.00	29.754 
10:20	79.6	79.6	83.6	82	73.6	2	4	112	0.00	29.752 
10:25	80.1	80.1	84.3	79	73.0	2	4	135	0.00	29.746 
10:30	80.3	80.3	84.7	79	73.2	2	6	90	0.00	29.744 
10:35	80.5	80.5	85.0	78	73.0	2	4	112	0.00	29.747 
10:40	80.3	80.3	84.7	79	73.2	2	6	90	0.00	29.750 
10:45	80.7	80.7	85.6	79	73.6	1	6	90	0.00	29.749 
10:50	81.2	81.2	86.7	79	74.0	3	5	90	0.00	29.748 
10:55	81.8	81.8	87.8	78	74.2	1	3	112	0.00	29.749 
11:00	82.2	82.2	88.3	76	73.9	2	4	112	0.00	29.751 
11:05	82.6	82.6	88.6	74	73.4	1	5	112	0.00	29.753 
11:10	82.6	82.6	88.9	75	73.8	1	4	270	0.00	29.758 
11:15	82.4	82.4	89.0	77	74.4	1	3	270	0.00	29.765 
11:20	82.4	82.4	89.5	79	75.2	0	4	270	0.00	29.765 
11:25	82.0	82.0	88.0	77	74.1	1	4	112	0.00	29.764 
11:30	81.8	81.8	88.1	79	74.6	0	1	112	0.00	29.768 
11:35	81.6	81.6	87.6	79	74.4	1	3	112	0.00	29.768 
11:40	81.4	81.4	87.4	80	74.6	0	1	112	0.00	29.768 
11:45	81.4	81.4	86.9	78	73.9	0	1	112	0.00	29.769 
11:50	81.4	81.4	86.9	78	73.9	1	2	112	0.00	29.768 
11:55	82.0	82.0	88.3	78	74.4	0	2	112	0.00	29.767 
12:00	82.6	82.6	89.4	77	74.6	0	2	112	0.00	29.762 
12:05	83.8	83.8	92.0	76	75.4	0	1	112	0.00	29.757 
12:10	84.3	84.3	92.2	73	74.7	0	2	112	0.00	29.755 
12:15	84.7	84.7	93.1	73	75.1	1	3	112	0.00	29.753 
12:20	84.9	84.9	93.6	73	75.3	1	4	112	0.00	29.752 
12:25	84.3	84.3	92.2	73	74.7	0	2	90	0.00	29.752 
12:30	84.3	84.3	92.2	73	74.7	1	3	90	0.00	29.752 
12:35	84.3	84.3	92.5	74	75.1	1	4	112	0.00	29.749 
12:40	84.3	84.3	92.9	75	75.5	1	2	112	0.00	29.745 
12:45	84.3	84.3	93.3	76	75.9	1	3	112	0.00	29.745 
12:50	84.5	84.5	92.6	73	74.9	1	3	112	0.00	29.747 
12:55	84.5	84.5	92.6	73	74.9	0	1	112	0.00	29.748 
13:00	84.3	84.3	92.9	75	75.5	1	3	112	0.00	29.749 
13:05	84.3	84.3	92.9	75	75.5	1	3	112	0.00	29.749 
13:10	84.9	84.9	94.4	75	76.1	0	2	90	0.00	29.744 
13:15	85.5	85.5	96.0	75	76.6	0	1	90	0.00	29.740 
13:20	85.7	85.7	95.2	72	75.6	0	1	68	0.00	29.740 
13:25	86.1	86.1	96.7	73	76.4	0	2	68	0.00	29.735 
13:30	86.3	86.3	97.2	73	76.6	0	2	68	0.00	29.735 
13:35	86.3	86.3	96.7	72	76.2	0	1	68	0.00	29.732 
13:40	86.5	86.5	95.8	69	75.1	1	3	292	0.00	29.730 
13:45	86.5	86.5	95.8	69	75.1	0	2	292	0.00	29.727 
13:50	86.5	86.5	95.4	68	74.7	1	2	292	0.00	29.728 
13:55	86.3	86.3	95.4	69	74.9	1	3	315	0.00	29.729 
14:00	86.5	86.5	95.8	69	75.1	1	3	315	0.00	29.725 
14:05	87.2	87.2	97.6	69	75.8	1	3	292	0.00	29.722 
14:10	87.6	87.6	97.6	67	75.3	1	4	338	0.00	29.721 
14:15	87.8	87.8	98.6	68	75.9	1	3	338	0.00	29.720 
14:20	87.6	87.6	98.1	68	75.7	1	3	338	0.00	29.721 
14:25	87.4	87.4	96.6	66	74.6	1	3	338	0.00	29.721 
14:30	87.0	87.0	95.7	66	74.2	1	2	338	0.00	29.719 
14:35	87.2	87.2	96.6	67	74.9	1	5	270	0.00	29.716 
14:40	87.8	87.8	97.1	65	74.5	1	3	292	0.00	29.715 
14:45	87.8	87.8	96.1	63	73.6	1	5	292	0.00	29.717 
14:50	87.6	87.6	95.7	63	73.4	2	3	315	0.00	29.714 
14:55	87.6	87.6	97.1	66	74.8	1	3	270	0.00	29.714 
15:00	86.5	86.5	94.5	66	73.8	1	3	338	0.00	29.713 
15:05	86.3	86.3	94.1	66	73.6	1	4	315	0.00	29.712 
15:10	86.5	86.5	94.1	65	73.3	2	4	270	0.00	29.708 
15:15	86.1	86.1	94.0	67	73.8	2	7	315	0.00	29.711 
15:20	85.9	85.9	94.0	68	74.1	1	4	292	0.00	29.712 
15:25	86.3	86.3	94.9	68	74.5	0	2	315	0.00	29.716 
15:30	86.1	86.1	94.9	69	74.7	1	4	292	0.00	29.719 
15:35	86.3	86.3	94.5	67	74.0	1	4	292	0.00	29.719 
15:40	86.3	86.3	94.5	67	74.0	1	3	315	0.00	29.720 
15:45	86.3	86.3	94.5	67	74.0	1	3	315	0.00	29.721 
15:50	85.9	85.9	93.6	67	73.6	1	3	315	0.00	29.724 
15:55	85.9	85.9	94.0	68	74.1	1	3	338	0.00	29.732 
16:00	85.7	85.7	92.7	66	73.0	1	4	292	0.00	29.737 
16:05	85.7	85.7	93.5	68	73.9	1	3	315	0.00	29.739 
16:10	85.9	85.9	93.6	67	73.6	0	4	270	0.00	29.741 
16:15	86.3	86.3	93.6	65	73.1	1	5	338	0.00	29.742 
16:20	86.5	86.5	92.5	61	71.4	1	3	292	0.00	29.743 
16:25	86.5	86.5	92.8	62	71.9	2	5	315	0.00	29.740 
16:30	86.5	86.5	92.8	62	71.9	2	6	315	0.00	29.740 
16:35	86.3	86.3	92.1	61	71.2	1	4	315	0.00	29.745 
16:40	86.3	86.3	92.8	63	72.2	1	3	292	0.00	29.742 
16:45	86.3	86.3	92.4	62	71.7	1	3	292	0.00	29.744 
16:50	86.5	86.5	93.7	64	72.8	1	2	292	0.00	29.745 
16:55	86.5	86.5	93.3	63	72.4	0	2	292	0.00	29.746 
17:00	86.5	86.5	93.7	64	72.8	1	2	292	0.00	29.749 
17:05	86.5	86.5	92.1	60	70.9	2	5	315	0.00	29.750 
17:10	86.5	86.5	92.5	61	71.4	1	3	292	0.00	29.750 
17:15	86.3	86.3	92.4	62	71.7	1	3	315	0.00	29.752 
17:20	85.9	85.9	92.0	63	71.8	0	2	292	0.00	29.752 
17:25	85.9	85.9	92.0	63	71.8	0	2	292	0.00	29.753 
17:30	85.7	85.7	92.3	65	72.5	0	3	292	0.00	29.754 
17:35	85.3	85.3	90.8	63	71.2	1	3	270	0.00	29.755 
17:40	85.1	85.1	90.4	63	71.1	0	2	270	0.00	29.755 
17:45	84.9	84.9	90.7	65	71.8	0	1	270	0.00	29.755 
17:50	85.1	85.1	90.8	64	71.5	0	1	270	0.00	29.756 
17:55	85.3	85.3	91.2	64	71.7	0	2	270	0.00	29.755 
18:00	85.5	85.5	91.2	63	71.4	0	1	292	0.00	29.756 
18:05	85.3	85.3	90.8	63	71.2	0	2	292	0.00	29.757 
18:10	84.9	84.9	90.4	64	71.3	0	1	292	0.00	29.757 
18:15	84.5	84.5	89.9	65	71.4	0	2	315	0.00	29.757 
18:20	84.5	84.5	90.2	66	71.9	0	2	315	0.00	29.757 
18:25	84.5	84.5	90.2	66	71.9	0	1	315	0.00	29.756 
18:30	84.5	84.5	90.2	66	71.9	0	2	315	0.00	29.755 
18:35	84.3	84.3	90.1	67	72.1	0	1	315	0.00	29.755 
18:40	84.1	84.1	89.7	67	71.9	0	1	315	0.00	29.758 
18:45	83.8	83.8	89.4	68	72.1	0	2	315	0.00	29.759 
18:50	83.6	83.6	88.7	67	71.5	0	3	315	0.00	29.759 
18:55	83.4	83.4	88.6	68	71.7	0	1	292	0.00	29.760 
19:00	83.2	83.2	88.5	69	71.9	0	1	292	0.00	29.758 
19:05	83.0	83.0	88.4	70	72.2	0	1	292	0.00	29.761 
19:10	82.8	82.8	88.2	71	72.4	0	1	292	0.00	29.763 
19:15	82.6	82.6	87.8	71	72.2	0	0	---	0.00	29.762 
19:20	82.6	82.6	88.1	72	72.6	0	0	---	0.00	29.761 
19:25	82.4	82.4	87.9	73	72.9	0	0	---	0.00	29.760 
19:30	82.2	82.2	87.5	73	72.7	0	0	---	0.00	29.759 
19:35	81.8	81.8	86.9	74	72.7	0	0	---	0.00	29.758 
19:40	81.6	81.6	86.5	74	72.5	0	0	---	0.00	29.758 
19:45	81.4	81.4	86.3	75	72.7	0	0	---	0.00	29.760 
19:50	81.2	81.2	85.9	75	72.5	0	0	---	0.00	29.760 
19:55	81.1	81.1	85.9	76	72.8	0	0	---	0.00	29.760 
20:00	81.1	81.1	85.7	75	72.4	0	1	292	0.00	29.763 
20:05	81.1	81.1	85.7	75	72.4	0	1	292	0.00	29.763 
20:10	80.9	80.9	85.3	75	72.2	0	0	---	0.00	29.766 
20:15	80.9	80.9	85.5	76	72.6	0	0	---	0.00	29.766 
20:20	80.7	80.7	85.1	76	72.4	0	0	---	0.00	29.772 
20:25	80.5	80.5	84.7	76	72.2	0	0	---	0.00	29.774 
20:30	80.3	80.3	84.3	76	72.0	0	0	---	0.00	29.776 
20:35	80.1	80.1	83.9	76	71.8	0	0	---	0.00	29.776 
20:40	80.1	80.1	84.0	77	72.2	0	0	---	0.00	29.777 
20:45	79.8	79.8	83.4	77	71.9	0	0	---	0.00	29.781 
20:50	79.8	79.8	83.4	77	71.9	0	0	---	0.00	29.782 
20:55	79.6	79.6	83.2	78	72.1	0	0	---	0.00	29.783 
21:00	79.4	79.4	82.8	78	71.9	0	0	---	0.00	29.782 
21:05	79.2	79.2	82.5	79	72.1	0	0	---	0.00	29.782 
21:10	79.2	79.2	82.5	79	72.1	0	0	---	0.00	29.787 
21:15	79.2	79.2	82.5	79	72.1	0	0	---	0.00	29.786 
21:20	79.0	79.0	82.2	80	72.3	0	0	---	0.00	29.787 
21:25	78.8	78.8	81.8	80	72.1	0	0	---	0.00	29.788 
21:30	78.6	78.6	81.4	80	71.9	0	0	---	0.00	29.787 
21:35	78.5	78.5	81.2	79	71.4	0	0	---	0.00	29.787 
21:40	78.5	78.5	81.2	79	71.4	0	0	---	0.00	29.788 
21:45	78.5	78.5	81.2	80	71.8	0	0	---	0.00	29.789 
21:50	78.5	78.5	81.2	79	71.4	0	0	---	0.00	29.789 
21:55	78.5	78.5	81.2	79	71.4	0	0	---	0.00	29.789 
22:00	78.5	78.5	81.2	79	71.4	0	0	---	0.00	29.788 
22:05	78.5	78.5	81.2	80	71.8	0	0	---	0.00	29.787 
22:10	78.5	78.5	81.2	79	71.4	0	1	292	0.00	29.788 
22:15	78.3	78.3	80.8	79	71.2	0	0	---	0.00	29.790 
22:20	78.3	78.3	80.8	79	71.2	0	0	---	0.00	29.789 
22:25	78.3	78.3	80.8	79	71.2	0	0	---	0.00	29.789 
22:30	78.3	78.3	80.8	79	71.2	0	0	---	0.00	29.788 
22:35	78.1	78.1	80.5	79	71.0	0	0	---	0.00	29.788 
22:40	78.1	78.1	80.5	79	71.0	0	0	---	0.00	29.788 
22:45	78.1	78.1	80.5	79	71.0	0	0	---	0.00	29.789 
22:50	77.9	77.9	80.1	80	71.2	0	0	---	0.00	29.789 
22:55	77.7	77.7	79.8	80	71.0	0	0	---	0.00	29.790 
23:00	77.7	77.7	79.8	80	71.0	0	0	---	0.00	29.792 
23:05	77.6	77.6	79.6	79	70.6	0	0	---	0.00	29.793 
23:10	77.6	77.6	79.6	80	70.9	0	0	---	0.00	29.795 
23:15	77.4	77.4	79.2	80	70.7	0	0	---	0.00	29.796 
23:20	77.2	77.2	78.9	81	70.9	0	0	---	0.00	29.798 
23:25	77.0	77.0	78.5	81	70.7	0	0	---	0.00	29.798 
23:30	76.8	76.8	78.2	81	70.5	0	0	---	0.00	29.799 
23:35	76.7	76.7	78.0	82	70.8	0	0	---	0.00	29.798 
23:40	76.7	76.7	78.0	82	70.8	0	0	---	0.00	29.800 
23:45	76.5	76.5	77.7	82	70.6	0	0	---	0.00	29.800 
23:50	76.5	76.5	77.7	82	70.6	0	1	292	0.00	29.797 
23:55	76.5	76.5	77.7	82	70.6	0	0	---	0.00	29.796 

CoCoRaHS
IN-AL-39
A2 Web Hosting
Creative Commons License
GoDaddy
Look for:

loaded 2017-12-11 06:40:07 • last modified 2010-11-18 10:43:29
Privacy PolicyDisclaimer
• wx.awcolley.com is powered by PmWiki v.2002016 •
• all content (unless otherwise noted) © 2017 A W Colley